Time;durP1;ratioP1;P1;durP2;ratioP2;P2;SDS_P1;SDS_P2;PMS_P1;PMS_P2;Temp;Humidity;BMP_temperature;BMP_pressure;BME280_temperature;BME280_humidity;BME280_pressure;Samples;Min_cycle;Max_cycle;Signal;HPM_P1;HPM_P2
2022/12/22 03:27:47;;;;;;;8.32;1.15;;;;;;;10.26;100.00;97629.00;4199997;28;20678;-49
2022/12/22 03:29:48;;;;;;;2.88;1.05;;;;;;;10.23;100.00;97630.41;4199371;28;20212;-49
2022/12/22 03:31:50;;;;;;;2.53;1.10;;;;;;;10.23;100.00;97624.09;4200506;28;20930;-50
2022/12/22 03:33:52;;;;;;;1.17;1.02;;;;;;;10.19;100.00;97623.81;4187404;28;20274;-49
2022/12/22 03:35:54;;;;;;;1.33;1.20;;;;;;;10.24;100.00;97621.09;4217013;27;20373;-49
2022/12/22 03:37:55;;;;;;;1.60;1.25;;;;;;;10.23;100.00;97618.63;4196381;28;20265;-49
2022/12/22 03:39:57;;;;;;;4.50;1.13;;;;;;;10.22;100.00;97612.31;4197098;28;20203;-49
2022/12/22 03:46:40;;;;;;;1.25;1.23;;;;;;;10.19;100.00;97601.09;4214349;28;20913;-49
2022/12/22 03:48:43;;;;;;;0.60;0.60;;;;;;;10.14;100.00;97592.91;4200278;28;20231;-49
2022/12/22 03:50:44;;;;;;;2.00;1.13;;;;;;;10.10;100.00;97591.81;4216529;27;20251;-50
2022/12/22 03:52:46;;;;;;;0.93;0.90;;;;;;;10.10;100.00;97589.06;4197942;28;20200;-49
2022/12/22 03:54:48;;;;;;;1.85;1.05;;;;;;;10.08;100.00;97594.00;4213268;28;20251;-49
2022/12/22 03:56:50;;;;;;;0.90;0.90;;;;;;;10.03;100.00;97583.00;4197615;28;20293;-50
2022/12/22 03:58:52;;;;;;;1.48;0.80;;;;;;;10.08;100.00;97599.47;4203809;28;20250;-49
2022/12/22 04:01:07;;;;;;;1.27;1.00;;;;;;;10.10;100.00;97578.13;4206467;28;20215;-49
2022/12/22 04:03:08;;;;;;;0.85;0.68;;;;;;;10.11;100.00;97590.72;4201046;28;20207;-49
2022/12/22 04:05:10;;;;;;;1.23;1.00;;;;;;;10.13;100.00;97586.63;4196703;28;20261;-49
2022/12/22 04:07:12;;;;;;;1.65;1.02;;;;;;;10.15;100.00;97575.41;4198919;28;20633;-49
2022/12/22 04:09:14;;;;;;;0.68;0.68;;;;;;;10.13;100.00;97569.38;4195647;28;20694;-49
2022/12/22 04:13:37;;;;;;;0.82;0.82;;;;;;;10.11;100.00;97560.63;4214732;28;20198;-49
2022/12/22 04:15:39;;;;;;;0.68;0.68;;;;;;;10.10;100.00;97559.00;4203010;28;20215;-49
2022/12/22 04:17:40;;;;;;;0.63;0.63;;;;;;;10.12;100.00;97556.81;4214101;27;20693;-51
2022/12/22 04:19:42;;;;;;;1.05;0.80;;;;;;;10.14;100.00;97554.66;4214931;28;20266;-49
2022/12/22 04:21:44;;;;;;;0.82;0.82;;;;;;;10.14;100.00;97557.38;4198562;28;20708;-49
2022/12/22 04:23:46;;;;;;;0.70;0.70;;;;;;;10.15;100.00;97553.56;4198088;28;20742;-49
2022/12/22 04:25:47;;;;;;;1.05;0.98;;;;;;;10.09;100.00;97551.91;4198848;28;20203;-49
2022/12/22 04:27:49;;;;;;;0.70;0.70;;;;;;;10.10;100.00;97564.47;4199137;28;20245;-49
2022/12/22 04:29:51;;;;;;;0.70;0.70;;;;;;;10.06;100.00;97552.41;4201123;28;20211;-49
2022/12/22 04:31:53;;;;;;;3.92;1.27;;;;;;;10.12;100.00;97559.53;4187323;28;20261;-50
2022/12/22 04:33:55;;;;;;;0.85;0.85;;;;;;;10.09;100.00;97560.91;4201186;28;20214;-50
2022/12/22 04:35:56;;;;;;;0.60;0.60;;;;;;;10.14;100.00;97544.53;4196280;28;20211;-49
2022/12/22 04:37:58;;;;;;;0.65;0.65;;;;;;;10.21;100.00;97553.28;4196223;28;20781;-49
2022/12/22 04:40:01;;;;;;;2.20;1.20;;;;;;;10.26;100.00;97552.47;4213231;28;20727;-50
2022/12/22 04:42:02;;;;;;;3.05;0.80;;;;;;;10.26;100.00;97547.00;4202764;28;20275;-49
2022/12/22 04:44:04;;;;;;;1.85;1.10;;;;;;;10.24;100.00;97551.91;4216125;28;20275;-49
2022/12/22 04:46:06;;;;;;;2.13;1.20;;;;;;;10.25;100.00;97548.91;4197430;28;20294;-49
2022/12/22 04:48:08;;;;;;;1.13;0.80;;;;;;;10.26;100.00;97544.25;4198256;28;20824;-49
2022/12/22 04:50:10;;;;;;;2.78;1.42;;;;;;;10.28;100.00;97544.81;4214116;28;20297;-49
2022/12/22 04:52:12;;;;;;;1.25;0.90;;;;;;;10.29;100.00;97552.72;4202554;28;20601;-50
2022/12/22 04:54:14;;;;;;;1.27;1.10;;;;;;;10.29;100.00;97549.19;4196221;28;20233;-49
2022/12/22 04:56:16;;;;;;;0.70;0.70;;;;;;;10.29;100.00;97541.78;4217436;28;20256;-49
2022/12/22 04:58:18;;;;;;;2.95;1.10;;;;;;;10.30;100.00;97545.38;4217452;28;22307;-49
2022/12/22 05:00:20;;;;;;;1.20;1.10;;;;;;;10.28;100.00;97544.81;4200009;28;20218;-49
2022/12/22 05:02:22;;;;;;;0.90;0.90;;;;;;;10.25;100.00;97545.34;4215992;28;20233;-49
2022/12/22 05:04:24;;;;;;;1.45;1.35;;;;;;;10.33;100.00;97526.50;4217742;28;20627;-49
2022/12/22 05:06:26;;;;;;;1.63;0.80;;;;;;;10.33;100.00;97553.00;4187892;28;20231;-49
2022/12/22 05:08:27;;;;;;;2.35;0.90;;;;;;;10.29;100.00;97543.72;4215689;28;20275;-49
2022/12/22 05:10:29;;;;;;;0.50;0.50;;;;;;;10.35;100.00;97550.84;4218580;28;20391;-49
2022/12/22 05:14:52;;;;;;;1.00;1.00;;;;;;;10.34;100.00;97541.81;4219671;28;20209;-48
2022/12/22 05:16:54;;;;;;;2.13;1.17;;;;;;;10.34;100.00;97538.28;4209738;28;20716;-49
2022/12/22 05:18:55;;;;;;;0.77;0.77;;;;;;;10.34;100.00;97538.28;4220464;27;20241;-49
2022/12/22 05:20:57;;;;;;;1.05;1.05;;;;;;;10.27;100.00;97532.25;4204027;28;20206;-50
2022/12/22 05:22:59;;;;;;;1.15;0.80;;;;;;;10.37;100.00;97529.50;4219471;27;20301;-49
2022/12/22 05:25:01;;;;;;;1.30;1.10;;;;;;;10.38;100.00;97559.31;4188286;28;20211;-49
2022/12/22 05:27:03;;;;;;;1.08;1.08;;;;;;;10.34;100.00;97539.06;4201259;28;20207;-49
2022/12/22 05:29:04;;;;;;;0.65;0.65;;;;;;;10.35;100.00;97537.19;4184171;28;20311;-50
2022/12/22 05:31:10;;;;;;;2.10;1.10;;;;;;;10.36;100.00;97536.06;4203517;28;20234;-48
2022/12/22 05:33:12;;;;;;;1.17;1.08;;;;;;;10.37;100.00;97546.75;4203110;28;20206;-48
2022/12/22 05:35:14;;;;;;;0.98;0.90;;;;;;;10.39;100.00;97551.94;4219962;27;20266;-49
2022/12/22 05:37:16;;;;;;;1.48;0.80;;;;;;;10.39;100.00;97551.94;4199961;28;20203;-49
2022/12/22 05:39:18;;;;;;;1.95;1.15;;;;;;;10.39;100.00;97547.28;4187170;28;20706;-49
2022/12/22 05:41:19;;;;;;;2.97;0.98;;;;;;;10.39;100.00;97547.28;4190574;28;20306;-49
2022/12/22 05:43:21;;;;;;;1.15;0.90;;;;;;;10.33;100.00;97536.59;4204279;28;20237;-49
2022/12/22 05:45:23;;;;;;;1.73;0.98;;;;;;;10.28;100.00;97529.22;4182432;28;20203;-49
2022/12/22 05:47:25;;;;;;;1.65;0.82;;;;;;;10.30;100.00;97542.63;4187873;28;21121;-50
2022/12/22 05:49:27;;;;;;;1.38;1.27;;;;;;;10.33;100.00;97536.59;4199998;28;20249;-49
2022/12/22 05:51:28;;;;;;;1.50;0.85;;;;;;;10.32;100.00;97543.16;4217733;27;20643;-50
2022/12/22 05:53:42;;;;;;;4.07;1.15;;;;;;;10.27;100.00;97546.72;4202592;28;20207;-49
2022/12/22 05:55:44;;;;;;;1.70;1.00;;;;;;;10.26;100.00;97544.25;4207258;28;20283;-49
2022/12/22 05:57:46;;;;;;;1.95;1.35;;;;;;;10.18;100.00;97534.69;4201175;28;20227;-54
2022/12/22 05:59:48;;;;;;;1.25;0.90;;;;;;;10.15;100.00;97545.34;4205234;28;20199;-49
2022/12/22 06:02:05;;;;;;;0.73;0.73;;;;;;;10.15;100.00;97539.88;4220311;27;20234;-49
2022/12/22 06:04:09;;;;;;;1.17;1.08;;;;;;;10.14;100.00;97533.59;4216185;27;20206;-50
2022/12/22 06:06:11;;;;;;;0.88;0.88;;;;;;;10.13;100.00;97553.81;4223590;27;20205;-50
2022/12/22 06:08:12;;;;;;;0.82;0.80;;;;;;;10.12;100.00;97541.25;4201541;28;20238;-49
2022/12/22 06:10:28;;;;;;;0.93;0.93;;;;;;;10.15;100.00;97539.88;4201725;28;20211;-49
2022/12/22 06:12:33;;;;;;;0.95;0.60;;;;;;;10.17;100.00;97532.22;4200394;28;20211;-52
2022/12/22 06:14:35;;;;;;;0.73;0.70;;;;;;;10.15;100.00;97534.41;4206304;28;20269;-50
2022/12/22 06:16:37;;;;;;;0.60;0.60;;;;;;;10.12;100.00;97529.47;4204332;28;20203;-49
2022/12/22 06:18:51;;;;;;;4.97;1.05;;;;;;;10.13;100.00;97547.50;4218978;27;20321;-49
2022/12/22 06:20:53;;;;;;;1.10;0.85;;;;;;;10.12;100.00;97534.94;4202633;28;20203;-51
2022/12/22 06:22:55;;;;;;;0.65;0.65;;;;;;;10.12;100.00;97534.94;4199006;28;20215;-51
2022/12/22 06:24:57;;;;;;;0.90;0.90;;;;;;;10.10;100.00;97532.50;4183137;28;20223;-50
2022/12/22 06:26:59;;;;;;;1.10;1.00;;;;;;;10.08;100.00;97528.41;4195420;28;20898;-51
2022/12/22 06:29:01;;;;;;;0.85;0.85;;;;;;;10.05;100.00;97524.28;4214872;28;20250;-49
2022/12/22 06:31:02;;;;;;;0.80;0.80;;;;;;;10.08;100.00;97517.47;4214476;27;20256;-50
2022/12/22 06:33:04;;;;;;;0.70;0.70;;;;;;;10.05;100.00;97545.31;4203590;28;20207;-50
2022/12/22 06:35:07;;;;;;;3.47;0.70;;;;;;;10.00;100.00;97531.59;4214549;27;20210;-50
2022/12/22 06:37:09;;;;;;;1.58;0.90;;;;;;;9.99;100.00;97540.91;4199575;28;20214;-51
2022/12/22 06:39:12;;;;;;;0.80;0.80;;;;;;;9.96;100.00;97547.72;4213627;28;20309;-50
2022/12/22 06:43:07;;;;;;;6.32;1.00;;;;;;;9.98;100.00;97544.72;4198853;28;20279;-49
2022/12/22 06:43:36;;;;;;;0.70;0.70;;;;;;;9.99;100.00;97546.38;4210076;27;20260;-49
2022/12/22 06:45:40;;;;;;;1.95;1.05;;;;;;;9.99;100.00;97543.63;4186228;28;20240;-50
2022/12/22 06:47:42;;;;;;;2.97;1.23;;;;;;;10.01;100.00;97541.47;4214416;27;20674;-51
2022/12/22 06:49:44;;;;;;;1.05;0.80;;;;;;;9.98;100.00;97542.00;4198125;28;20233;-52
2022/12/22 06:51:46;;;;;;;1.85;1.33;;;;;;;9.95;100.00;97539.81;4198547;28;20425;-50
2022/12/22 06:53:48;;;;;;;1.35;1.25;;;;;;;9.93;100.00;97541.97;4208733;28;20210;-49
2022/12/22 06:55:49;;;;;;;1.98;1.50;;;;;;;9.96;100.00;97538.72;4182976;28;20219;-50
2022/12/22 06:57:51;;;;;;;4.50;1.17;;;;;;;9.98;100.00;97544.72;4214193;28;20353;-51
2022/12/22 06:59:53;;;;;;;0.90;0.90;;;;;;;10.01;100.00;97539.53;4185304;28;20207;-49
2022/12/22 07:01:58;;;;;;;1.58;1.08;;;;;;;10.06;100.00;97552.41;4199006;28;20257;-53
2022/12/22 07:04:00;;;;;;;1.02;1.02;;;;;;;10.03;100.00;97552.94;4185774;28;20211;-52
2022/12/22 07:06:03;;;;;;;1.20;0.98;;;;;;;9.99;100.00;97551.84;4220355;27;20263;-52
2022/12/22 07:08:05;;;;;;;2.33;1.33;;;;;;;10.00;100.00;97542.53;4199654;28;20736;-49
2022/12/22 07:10:13;;;;;;;0.90;0.90;;;;;;;10.00;100.00;97548.00;4205207;27;20210;-50
2022/12/22 07:12:14;;;;;;;2.50;1.17;;;;;;;9.97;100.00;97556.75;4199321;28;20207;-50
2022/12/22 07:14:20;;;;;;;4.57;1.10;;;;;;;10.07;100.00;97562.28;4201132;28;20222;-51
2022/12/22 07:16:22;;;;;;;4.57;1.38;;;;;;;10.03;100.00;97558.41;4200685;28;20720;-51
2022/12/22 07:18:24;;;;;;;1.45;1.05;;;;;;;10.03;100.00;97563.88;4203395;28;20230;-50
2022/12/22 07:20:26;;;;;;;7.78;1.92;;;;;;;9.99;100.00;97560.03;4203744;28;20206;-51
2022/12/22 07:22:34;;;;;;;3.35;1.88;;;;;;;9.99;100.00;97565.50;4201899;28;20701;-50
2022/12/22 07:24:35;;;;;;;5.68;1.77;;;;;;;9.97;100.00;97570.41;4200323;28;20209;-53
2022/12/22 07:26:37;;;;;;;5.30;1.88;;;;;;;9.91;100.00;97571.50;4216715;27;20289;-51
2022/12/22 07:28:42;;;;;;;2.72;1.63;;;;;;;9.92;100.00;97557.56;4215547;28;20230;-51
2022/12/22 07:30:44;;;;;;;1.75;1.15;;;;;;;9.91;100.00;97563.28;4204592;28;20294;-50
2022/12/22 07:32:46;;;;;;;4.80;1.20;;;;;;;9.93;100.00;97569.31;4197540;28;20949;-52
2022/12/22 07:34:48;;;;;;;3.63;1.27;;;;;;;9.99;100.00;97565.50;4193078;28;20327;-51
2022/12/22 07:36:50;;;;;;;3.88;1.25;;;;;;;10.08;100.00;97561.19;4188317;28;20659;-51
2022/12/22 07:38:57;;;;;;;6.72;1.63;;;;;;;10.04;100.00;97560.06;4194782;28;20238;-50
2022/12/22 07:40:59;;;;;;;2.38;1.67;;;;;;;10.00;100.00;97561.66;4189763;28;20199;-50
2022/12/22 07:43:06;;;;;;;5.20;1.67;;;;;;;9.96;100.00;97564.13;4189856;28;20203;-52
2022/12/22 07:45:10;;;;;;;1.80;1.27;;;;;;;9.92;100.00;97573.13;4201821;28;20358;-51
2022/12/22 07:47:11;;;;;;;9.23;1.88;;;;;;;9.95;100.00;97564.41;4205484;28;20234;-49
2022/12/22 07:51:36;;;;;;;5.50;1.45;;;;;;;9.91;100.00;97555.09;4215743;28;20195;-49
2022/12/22 07:53:39;;;;;;;3.00;1.27;;;;;;;9.91;100.00;97566.84;4218753;27;20209;-52
2022/12/22 07:55:51;;;;;;;2.08;1.95;;;;;;;9.93;100.00;97563.84;4219503;27;20294;-50
2022/12/22 07:57:54;;;;;;;2.80;1.13;;;;;;;9.92;100.00;97567.66;4197323;28;20231;-49
2022/12/22 07:59:56;;;;;;;2.88;1.23;;;;;;;10.00;100.00;97564.41;4196980;28;20207;-50
2022/12/22 08:01:58;;;;;;;1.35;1.27;;;;;;;10.00;100.00;97558.94;4180758;28;20269;-53
2022/12/22 08:04:00;;;;;;;1.88;0.80;;;;;;;9.99;100.00;97562.75;4201544;28;20230;-51
2022/12/22 08:06:03;;;;;;;7.63;1.63;;;;;;;9.93;100.00;97547.44;4197288;28;20214;-50
2022/12/22 08:08:06;;;;;;;4.88;1.00;;;;;;;9.95;100.00;97556.22;4193155;28;20314;-50
2022/12/22 08:10:08;;;;;;;6.50;2.08;;;;;;;9.91;100.00;97561.41;4196863;28;20231;-49
2022/12/22 08:12:10;;;;;;;3.92;1.95;;;;;;;9.86;100.00;97552.34;4194576;28;20289;-50
2022/12/22 08:14:12;;;;;;;5.78;1.40;;;;;;;9.87;100.00;97565.75;4194478;28;20203;-49
2022/12/22 08:16:14;;;;;;;4.15;1.42;;;;;;;9.93;100.00;97558.38;4193873;28;20199;-48
2022/12/22 08:18:16;;;;;;;2.42;1.15;;;;;;;9.92;100.00;97551.25;4197101;28;20288;-49
2022/12/22 08:20:18;;;;;;;4.45;1.17;;;;;;;9.84;100.00;97557.25;4196247;28;20238;-48
2022/12/22 08:22:22;;;;;;;2.15;1.25;;;;;;;9.83;100.00;97556.44;4201105;28;20207;-49
2022/12/22 08:24:25;;;;;;;7.63;1.63;;;;;;;9.82;100.00;97562.19;4200727;28;20246;-50
2022/12/22 08:26:31;;;;;;;3.50;1.52;;;;;;;9.84;100.00;97551.78;4199301;28;20546;-49
2022/12/22 08:28:34;;;;;;;3.38;2.13;;;;;;;9.85;100.00;97556.16;4212100;28;20219;-50
2022/12/22 08:30:36;;;;;;;2.70;1.40;;;;;;;9.87;100.00;97559.47;4198547;28;21043;-49
2022/12/22 08:32:39;;;;;;;5.88;2.33;;;;;;;9.86;100.00;97569.56;4195698;28;20245;-48
2022/12/22 08:34:42;;;;;;;3.65;1.58;;;;;;;9.86;100.00;97557.81;4202581;28;20198;-49
2022/12/22 08:36:49;;;;;;;3.15;1.60;;;;;;;9.87;100.00;97564.94;4199855;28;20244;-49
2022/12/22 08:38:59;;;;;;;5.57;2.00;;;;;;;9.87;100.00;97565.75;4200853;28;20217;-49
2022/12/22 08:41:48;;;;;;;5.13;1.95;;;;;;;9.88;100.00;97566.56;4183335;28;20211;-50
2022/12/22 08:43:43;;;;;;;4.38;2.25;;;;;;;9.89;100.00;97569.00;4197723;28;20243;-49
2022/12/22 08:45:44;;;;;;;3.58;1.52;;;;;;;9.87;100.00;97570.41;4212489;28;20337;-49
2022/12/22 08:47:46;;;;;;;2.67;1.30;;;;;;;9.84;100.00;97573.66;4192054;28;20226;-50
2022/12/22 08:49:48;;;;;;;4.97;1.38;;;;;;;9.82;100.00;97575.84;4200526;28;20194;-49
2022/12/22 08:51:51;;;;;;;2.85;1.13;;;;;;;9.82;100.00;97582.09;4215523;28;20253;-50
2022/12/22 08:53:53;;;;;;;2.55;0.90;;;;;;;9.83;100.00;97580.22;4199408;28;20682;-50
2022/12/22 08:56:10;;;;;;;2.25;1.30;;;;;;;9.87;100.00;97595.00;4213926;28;20201;-49
2022/12/22 08:58:12;;;;;;;1.48;1.38;;;;;;;9.82;100.00;97589.50;4211388;28;20230;-50
2022/12/22 09:00:21;;;;;;;2.53;0.98;;;;;;;9.81;100.00;97588.66;4200935;28;20278;-50
2022/12/22 09:02:23;;;;;;;3.92;1.52;;;;;;;9.86;100.00;97596.06;4212782;28;20251;-50
2022/12/22 09:04:25;;;;;;;2.17;1.15;;;;;;;9.87;100.00;97598.53;4200949;28;20217;-50
2022/12/22 09:06:27;;;;;;;4.88;1.48;;;;;;;9.86;100.00;97606.97;4186167;28;20231;-49
2022/12/22 09:08:35;;;;;;;1.63;1.02;;;;;;;9.87;100.00;97600.47;4200085;28;20313;-50
2022/12/22 09:10:39;;;;;;;2.05;0.98;;;;;;;9.84;100.00;97603.72;4198688;28;20214;-49
2022/12/22 09:12:41;;;;;;;2.30;1.00;;;;;;;9.84;100.00;97598.25;4196076;28;20222;-49
2022/12/22 09:14:43;;;;;;;2.60;1.25;;;;;;;9.86;100.00;97618.75;4214396;28;20218;-50
2022/12/22 09:16:45;;;;;;;1.27;0.70;;;;;;;9.87;100.00;97619.59;4198261;28;20751;-50
2022/12/22 09:18:47;;;;;;;1.08;1.08;;;;;;;9.87;100.00;97630.50;4211061;28;20253;-50
2022/12/22 09:20:55;;;;;;;2.45;1.10;;;;;;;9.85;100.00;97640.88;4184683;28;20598;-49
2022/12/22 09:22:58;;;;;;;1.95;1.00;;;;;;;9.79;100.00;97633.72;4195680;28;20680;-49
2022/12/22 09:25:00;;;;;;;9.27;0.98;;;;;;;9.83;100.00;97629.38;4214449;28;20221;-50
2022/12/22 09:27:03;;;;;;;2.83;0.90;;;;;;;9.82;100.00;97644.16;4202942;28;20223;-49
2022/12/22 09:29:05;;;;;;;7.85;1.13;;;;;;;9.78;100.00;97654.78;4197776;28;20561;-49
2022/12/22 09:31:07;;;;;;;1.83;0.80;;;;;;;9.73;100.00;97668.41;4217309;28;20199;-49
2022/12/22 09:33:09;;;;;;;0.73;0.73;;;;;;;9.73;100.00;97662.09;4197797;28;20657;-50
2022/12/22 09:35:11;;;;;;;2.28;1.42;;;;;;;9.73;100.00;97660.22;4197990;28;20199;-50
2022/12/22 09:37:16;;;;;;;0.90;0.90;;;;;;;9.73;100.00;97667.56;4187755;28;20211;-50
2022/12/22 09:39:24;;;;;;;2.47;1.38;;;;;;;9.73;100.00;97675.78;4198687;28;20230;-54
2022/12/22 09:41:53;;;;;;;2.92;1.13;;;;;;;9.72;100.00;97674.13;4197604;28;20204;-51
2022/12/22 09:43:55;;;;;;;4.10;1.40;;;;;;;9.73;100.00;97690.25;4201878;28;20290;-49
2022/12/22 09:45:57;;;;;;;3.05;1.13;;;;;;;9.76;100.00;97686.19;4186252;28;20211;-49
2022/12/22 09:48:00;;;;;;;0.80;0.80;;;;;;;9.78;100.00;97697.66;4197984;28;20953;-48
2022/12/22 09:50:04;;;;;;;0.80;0.80;;;;;;;9.76;100.00;97713.50;4158402;28;20323;-48
2022/12/22 09:52:40;;;;;;;1.65;0.98;;;;;;;9.81;100.00;97725.28;4181889;28;20603;-49
2022/12/22 09:54:41;;;;;;;0.80;0.80;;;;;;;9.77;100.00;97723.34;4205559;28;20248;-48
2022/12/22 09:56:43;;;;;;;0.88;0.80;;;;;;;9.79;100.00;97732.09;4201933;28;20215;-48
2022/12/22 09:58:46;;;;;;;0.65;0.65;;;;;;;9.80;100.00;97728.25;4183878;28;20227;-50
2022/12/22 10:00:52;;;;;;;0.85;0.85;;;;;;;9.75;100.00;97720.06;4202213;28;21057;-49
2022/12/22 10:03:06;;;;;;;3.65;1.60;;;;;;;9.79;100.00;97723.88;4184939;28;20258;-50
2022/12/22 10:05:27;;;;;;;3.88;2.22;;;;;;;9.79;100.00;97738.38;4207233;28;20322;-49
2022/12/22 10:07:38;;;;;;;1.17;1.10;;;;;;;9.76;100.00;97749.00;4204367;28;20203;-48
2022/12/22 10:09:40;;;;;;;3.85;1.77;;;;;;;9.79;100.00;97759.41;4201429;28;20294;-48
2022/12/22 10:11:54;;;;;;;1.15;1.00;;;;;;;9.81;100.00;97755.31;4200730;28;20206;-49
2022/12/22 10:13:56;;;;;;;3.95;1.42;;;;;;;9.84;100.00;97764.91;4202947;28;20273;-48
2022/12/22 10:15:58;;;;;;;1.45;1.13;;;;;;;9.85;100.00;97759.19;4187068;28;20243;-49
2022/12/22 10:18:15;;;;;;;1.67;1.42;;;;;;;9.87;100.00;97764.41;4197491;28;20337;-48
2022/12/22 10:20:20;;;;;;;1.67;1.20;;;;;;;9.80;100.00;97766.50;4198768;28;20726;-49
2022/12/22 10:22:31;;;;;;;2.65;1.90;;;;;;;9.81;100.00;97777.19;4194605;28;20211;-48
2022/12/22 10:24:34;;;;;;;1.75;1.50;;;;;;;9.85;100.00;97774.75;4196627;28;20293;-48
2022/12/22 10:26:38;;;;;;;1.48;1.20;;;;;;;9.82;100.00;97775.28;4185614;28;20252;-49
2022/12/22 10:28:46;;;;;;;2.53;1.77;;;;;;;9.86;100.00;97781.84;4198054;28;20273;-49
2022/12/22 10:30:48;;;;;;;2.55;0.80;;;;;;;9.84;100.00;97786.78;4204645;28;20643;-49
2022/12/22 10:33:11;;;;;;;1.25;1.00;;;;;;;9.84;100.00;97794.97;4206416;28;20203;-49
2022/12/22 10:35:13;;;;;;;1.60;1.00;;;;;;;9.82;100.00;97797.16;4203058;28;20199;-50
2022/12/22 10:37:14;;;;;;;2.30;1.00;;;;;;;9.88;100.00;97798.84;4200943;28;20198;-49
2022/12/22 10:39:28;;;;;;;2.13;1.08;;;;;;;9.87;100.00;97805.38;4183050;28;20289;-49
2022/12/22 10:41:34;;;;;;;2.08;0.95;;;;;;;9.86;100.00;97798.25;4212389;28;21888;-48
2022/12/22 10:43:38;;;;;;;0.65;0.65;;;;;;;9.86;100.00;97810.00;4200996;28;20276;-49
2022/12/22 10:45:46;;;;;;;0.80;0.80;;;;;;;9.86;100.00;97809.19;4216070;27;20266;-48
2022/12/22 10:47:53;;;;;;;0.80;0.80;;;;;;;9.83;100.00;97804.25;4200628;28;20697;-49
2022/12/22 10:49:56;;;;;;;1.17;0.95;;;;;;;9.82;100.00;97813.53;4221697;27;20198;-49
2022/12/22 10:52:21;;;;;;;0.70;0.70;;;;;;;9.84;100.00;97812.19;4216457;28;20397;-48
2022/12/22 10:54:33;;;;;;;1.55;1.38;;;;;;;9.90;100.00;97818.50;4202580;28;20206;-48
2022/12/22 10:56:34;;;;;;;0.70;0.70;;;;;;;9.88;100.00;97824.22;4214984;27;20197;-49
2022/12/22 10:58:47;;;;;;;0.52;0.52;;;;;;;9.86;100.00;97809.19;4215036;27;20233;-49
2022/12/22 11:01:03;;;;;;;4.85;0.90;;;;;;;9.91;100.00;97817.41;4204487;28;20203;-49
2022/12/22 11:03:10;;;;;;;0.90;0.90;;;;;;;9.85;100.00;97823.94;4200750;28;20694;-50
2022/12/22 11:05:12;;;;;;;0.77;0.77;;;;;;;9.87;100.00;97822.59;4203332;28;20283;-49
2022/12/22 11:07:14;;;;;;;5.18;1.17;;;;;;;9.93;100.00;97820.69;4202366;28;20736;-49
2022/12/22 11:09:16;;;;;;;0.90;0.90;;;;;;;9.94;100.00;97817.72;4200566;28;20227;-50
2022/12/22 11:11:40;;;;;;;0.80;0.80;;;;;;;9.98;100.00;97827.03;4215325;27;20195;-50
2022/12/22 11:14:31;;;;;;;1.17;0.82;;;;;;;9.96;100.00;97836.59;4176818;28;20296;-49
2022/12/22 11:16:41;;;;;;;0.60;0.60;;;;;;;9.99;100.00;97842.34;4155172;28;20210;-49
2022/12/22 11:18:56;;;;;;;1.00;1.00;;;;;;;10.01;100.00;97839.38;4214018;28;20261;-49
2022/12/22 11:21:00;;;;;;;0.60;0.60;;;;;;;10.01;100.00;97850.28;4217214;28;20238;-49
2022/12/22 11:23:10;;;;;;;0.80;0.80;;;;;;;10.04;100.00;97850.63;4203565;28;20871;-49
2022/12/22 11:25:36;;;;;;;0.73;0.73;;;;;;;10.10;100.00;97862.41;4196739;28;20301;-49
2022/12/22 11:27:43;;;;;;;0.93;0.90;;;;;;;10.13;100.00;97859.13;4219643;27;20210;-49
2022/12/22 11:30:02;;;;;;;1.48;0.82;;;;;;;10.18;100.00;97861.91;4219100;27;20214;-49
2022/12/22 11:32:15;;;;;;;1.55;0.90;;;;;;;10.12;100.00;97868.44;4217951;27;20210;-49
2022/12/22 11:34:33;;;;;;;0.73;0.73;;;;;;;10.14;100.00;97867.09;4198339;28;20210;-48
2022/12/22 11:36:38;;;;;;;1.00;0.93;;;;;;;10.09;100.00;97877.16;4200138;28;20298;-49
2022/12/22 11:39:07;;;;;;;3.50;0.70;;;;;;;10.07;100.00;97882.09;4197363;28;20235;-48
2022/12/22 11:41:23;;;;;;;0.70;0.70;;;;;;;10.01;100.00;97888.56;4219287;27;20256;-49
2022/12/22 11:43:53;;;;;;;0.68;0.68;;;;;;;9.99;100.00;97886.09;4183727;28;20216;-50
2022/12/22 11:46:03;;;;;;;0.60;0.60;;;;;;;10.05;100.00;97895.16;4199256;28;20671;-50
2022/12/22 11:48:40;;;;;;;0.60;0.60;;;;;;;10.04;100.00;97888.06;4199543;28;20234;-48
2022/12/22 11:50:46;;;;;;;0.93;0.93;;;;;;;10.06;100.00;97894.91;4203714;28;20199;-49
2022/12/22 11:53:14;;;;;;;0.70;0.70;;;;;;;10.12;100.00;97898.50;4218730;28;20601;-49
2022/12/22 11:55:33;;;;;;;0.80;0.80;;;;;;;10.14;100.00;97894.41;4219760;28;20213;-49
2022/12/22 11:57:51;;;;;;;0.82;0.82;;;;;;;10.13;100.00;97905.59;4216191;28;20219;-49
2022/12/22 12:00:12;;;;;;;0.90;0.90;;;;;;;10.17;100.00;97898.53;4197117;28;20244;-49
2022/12/22 12:03:00;;;;;;;1.45;0.60;;;;;;;10.14;100.00;97894.41;4201097;28;20214;-49
2022/12/22 12:05:24;;;;;;;0.80;0.80;;;;;;;10.11;100.00;97905.06;4195653;28;20203;-49
2022/12/22 12:07:30;;;;;;;0.70;0.70;;;;;;;10.09;100.00;97902.56;4211690;27;20203;-49
2022/12/22 12:09:38;;;;;;;0.80;0.80;;;;;;;10.12;100.00;97907.53;4185747;28;20215;-49
2022/12/22 12:11:58;;;;;;;0.70;0.70;;;;;;;10.17;100.00;97910.31;4198410;28;20213;-48
2022/12/22 12:14:18;;;;;;;0.70;0.70;;;;;;;10.15;100.00;97917.13;4186844;28;20302;-49
2022/12/22 12:16:32;;;;;;;0.80;0.80;;;;;;;10.13;100.00;97919.28;4212113;27;20207;-51
2022/12/22 12:19:00;;;;;;;1.17;1.17;;;;;;;10.11;100.00;97926.94;4197736;28;20235;-52
2022/12/22 12:21:28;;;;;;;0.60;0.60;;;;;;;10.12;100.00;97920.38;4214018;28;20800;-49
2022/12/22 12:23:46;;;;;;;0.55;0.55;;;;;;;10.10;100.00;97930.75;4197529;28;20230;-48
2022/12/22 12:25:56;;;;;;;0.70;0.70;;;;;;;10.06;100.00;97918.69;4201297;28;20245;-49
2022/12/22 12:28:32;;;;;;;0.65;0.65;;;;;;;10.14;100.00;97926.41;4210932;27;20287;-48
2022/12/22 12:30:54;;;;;;;0.60;0.60;;;;;;;10.15;100.00;97919.84;4175192;28;20213;-49
2022/12/22 12:33:36;;;;;;;0.60;0.60;;;;;;;10.25;100.00;97928.13;4200105;28;20198;-48
2022/12/22 12:36:00;;;;;;;0.70;0.70;;;;;;;10.30;100.00;97930.91;4138297;28;20205;-48
2022/12/22 12:38:33;;;;;;;0.70;0.70;;;;;;;10.28;100.00;97933.09;4198999;28;22087;-48
2022/12/22 12:41:19;;;;;;;0.68;0.68;;;;;;;10.29;100.00;97934.72;4208368;28;20240;-48
2022/12/22 12:43:27;;;;;;;0.60;0.60;;;;;;;10.31;100.00;97935.28;4205343;28;20203;-48
2022/12/22 12:45:42;;;;;;;0.60;0.60;;;;;;;10.33;100.00;97941.31;4199507;28;20273;-49
2022/12/22 12:47:49;;;;;;;0.60;0.60;;;;;;;10.26;100.00;97946.16;4207214;28;20679;-48
2022/12/22 12:50:00;;;;;;;0.75;0.75;;;;;;;10.23;100.00;97942.06;4218123;28;20202;-47
2022/12/22 12:52:42;;;;;;;0.70;0.70;;;;;;;10.34;100.00;97945.72;4190709;28;20724;-48
2022/12/22 12:54:47;;;;;;;0.70;0.70;;;;;;;10.46;100.00;97951.78;4195320;28;20292;-48
2022/12/22 12:56:58;;;;;;;0.70;0.70;;;;;;;10.39;100.00;97934.78;4211462;28;20199;-49
2022/12/22 12:59:08;;;;;;;0.80;0.80;;;;;;;10.28;100.00;97927.63;4205203;28;20233;-49
2022/12/22 13:01:29;;;;;;;0.85;0.70;;;;;;;10.34;100.00;97926.56;4218332;28;20230;-48
2022/12/22 13:03:53;;;;;;;2.33;1.65;;;;;;;10.62;100.00;97929.75;4202812;28;20228;-49
2022/12/22 13:06:08;;;;;;;1.80;1.50;;;;;;;10.76;100.00;97930.91;4207752;28;20222;-49
2022/12/22 13:08:24;;;;;;;1.40;1.30;;;;;;;10.88;100.00;97941.66;4204822;28;20246;-49
2022/12/22 13:10:26;;;;;;;2.10;0.65;;;;;;;10.62;100.00;97934.41;4202069;28;21223;-49
2022/12/22 13:12:33;;;;;;;0.95;0.60;;;;;;;10.54;100.00;97932.97;4187861;28;20320;-49
2022/12/22 13:14:53;;;;;;;0.80;0.80;;;;;;;10.43;100.00;97946.84;4198712;28;20212;-49
2022/12/22 13:17:31;;;;;;;1.27;0.80;;;;;;;10.36;100.00;97940.78;4206178;28;20776;-49
2022/12/22 13:19:33;;;;;;;1.02;0.95;;;;;;;10.33;100.00;97953.06;4199734;28;20293;-49
2022/12/22 13:21:44;;;;;;;1.95;1.38;;;;;;;10.30;100.00;97952.78;4212874;28;20218;-50
2022/12/22 13:23:55;;;;;;;1.05;1.00;;;;;;;10.31;100.00;97959.88;4182717;28;20738;-49
2022/12/22 13:26:20;;;;;;;1.55;1.23;;;;;;;10.29;100.00;97956.59;4199871;28;20215;-49
2022/12/22 13:28:22;;;;;;;1.35;1.25;;;;;;;10.25;100.00;97952.72;4198391;28;20262;-50
2022/12/22 13:30:27;;;;;;;0.80;0.80;;;;;;;10.33;100.00;97946.78;4188304;28;20211;-48
2022/12/22 13:32:32;;;;;;;0.70;0.70;;;;;;;10.32;100.00;97954.16;4199047;28;20290;-50
2022/12/22 13:34:41;;;;;;;0.95;0.82;;;;;;;10.30;100.00;97953.63;4208344;28;20769;-48